sensor_id;sensor_type;location;lat;lon;timestamp;pressure;altitude;pressure_sealevel;temperature;humidity
56689;BME280;42565;53.342;-1.534;2024-03-02T00:00:13;96500.94;;;4.43;69.29
56689;BME280;42565;53.342;-1.534;2024-03-02T00:02:40;96495.23;;;4.52;68.91
56689;BME280;42565;53.342;-1.534;2024-03-02T00:05:14;96493.37;;;4.16;68.58
56689;BME280;42565;53.342;-1.534;2024-03-02T00:07:53;96491.83;;;4.72;66.91
56689;BME280;42565;53.342;-1.534;2024-03-02T00:10:22;96488.93;;;4.88;66.56
56689;BME280;42565;53.342;-1.534;2024-03-02T00:12:50;96488.51;;;4.81;65.39
56689;BME280;42565;53.342;-1.534;2024-03-02T00:15:40;96493.59;;;4.86;65.61
56689;BME280;42565;53.342;-1.534;2024-03-02T00:18:08;96495.50;;;4.70;65.68
56689;BME280;42565;53.342;-1.534;2024-03-02T00:20:37;96491.74;;;5.14;64.99
56689;BME280;42565;53.342;-1.534;2024-03-02T00:23:05;96491.07;;;4.84;64.26
56689;BME280;42565;53.342;-1.534;2024-03-02T00:25:39;96489.34;;;5.21;64.07
56689;BME280;42565;53.342;-1.534;2024-03-02T00:28:13;96487.47;;;4.97;64.33
56689;BME280;42565;53.342;-1.534;2024-03-02T00:30:51;96487.11;;;5.44;64.28
56689;BME280;42565;53.342;-1.534;2024-03-02T00:33:20;96491.07;;;5.35;64.33
56689;BME280;42565;53.342;-1.534;2024-03-02T00:35:48;96491.18;;;5.15;64.77
56689;BME280;42565;53.342;-1.534;2024-03-02T00:38:15;96487.49;;;4.84;65.35
56689;BME280;42565;53.342;-1.534;2024-03-02T00:40:43;96488.82;;;4.76;65.61
56689;BME280;42565;53.342;-1.534;2024-03-02T00:43:31;96491.51;;;5.46;66.06
56689;BME280;42565;53.342;-1.534;2024-03-02T00:46:04;96495.28;;;5.25;64.11
56689;BME280;42565;53.342;-1.534;2024-03-02T00:48:31;96495.18;;;4.83;65.52
56689;BME280;42565;53.342;-1.534;2024-03-02T00:50:58;96498.73;;;4.31;67.02
56689;BME280;42565;53.342;-1.534;2024-03-02T00:53:26;96497.10;;;5.14;66.85
56689;BME280;42565;53.342;-1.534;2024-03-02T00:55:53;96492.21;;;4.62;65.78
56689;BME280;42565;53.342;-1.534;2024-03-02T00:58:21;96492.21;;;4.59;66.75
56689;BME280;42565;53.342;-1.534;2024-03-02T01:00:48;96493.05;;;4.67;66.97
56689;BME280;42565;53.342;-1.534;2024-03-02T01:03:15;96490.70;;;4.87;67.04
56689;BME280;42565;53.342;-1.534;2024-03-02T01:05:56;96492.89;;;4.93;66.52
56689;BME280;42565;53.342;-1.534;2024-03-02T01:08:24;96491.00;;;4.88;66.50
56689;BME280;42565;53.342;-1.534;2024-03-02T01:10:51;96492.56;;;4.86;65.76
56689;BME280;42565;53.342;-1.534;2024-03-02T01:13:19;96491.64;;;5.21;65.13
56689;BME280;42565;53.342;-1.534;2024-03-02T01:15:46;96491.27;;;4.90;66.16
56689;BME280;42565;53.342;-1.534;2024-03-02T01:18:14;96489.68;;;4.73;66.83
56689;BME280;42565;53.342;-1.534;2024-03-02T01:20:41;96484.45;;;4.59;67.11
56689;BME280;42565;53.342;-1.534;2024-03-02T01:23:08;96485.08;;;4.68;67.03
56689;BME280;42565;53.342;-1.534;2024-03-02T01:25:35;96486.12;;;4.69;68.35
56689;BME280;42565;53.342;-1.534;2024-03-02T01:28:03;96486.12;;;4.89;67.84
56689;BME280;42565;53.342;-1.534;2024-03-02T01:30:30;96487.13;;;4.65;68.64
56689;BME280;42565;53.342;-1.534;2024-03-02T01:32:57;96487.29;;;4.46;67.67
56689;BME280;42565;53.342;-1.534;2024-03-02T01:35:24;96484.83;;;4.78;66.62
56689;BME280;42565;53.342;-1.534;2024-03-02T01:37:51;96489.85;;;4.55;66.88
56689;BME280;42565;53.342;-1.534;2024-03-02T01:40:17;96491.52;;;4.99;65.74
56689;BME280;42565;53.342;-1.534;2024-03-02T01:42:45;96491.53;;;4.63;66.63
56689;BME280;42565;53.342;-1.534;2024-03-02T01:45:13;96486.26;;;5.17;65.41
56689;BME280;42565;53.342;-1.534;2024-03-02T01:47:39;96475.07;;;4.95;66.30
56689;BME280;42565;53.342;-1.534;2024-03-02T01:50:07;96468.78;;;5.00;65.88
56689;BME280;42565;53.342;-1.534;2024-03-02T01:52:34;96458.66;;;4.78;67.26
56689;BME280;42565;53.342;-1.534;2024-03-02T01:55:02;96462.05;;;4.88;66.39
56689;BME280;42565;53.342;-1.534;2024-03-02T01:57:29;96462.73;;;5.14;66.76
56689;BME280;42565;53.342;-1.534;2024-03-02T01:59:56;96459.99;;;4.76;67.55
56689;BME280;42565;53.342;-1.534;2024-03-02T02:02:23;96467.79;;;5.04;66.65
56689;BME280;42565;53.342;-1.534;2024-03-02T02:04:50;96464.76;;;4.66;67.74
56689;BME280;42565;53.342;-1.534;2024-03-02T02:07:17;96468.20;;;5.08;66.78
56689;BME280;42565;53.342;-1.534;2024-03-02T02:09:45;96466.87;;;5.02;66.73
56689;BME280;42565;53.342;-1.534;2024-03-02T02:12:12;96464.47;;;4.87;67.56
56689;BME280;42565;53.342;-1.534;2024-03-02T02:14:39;96466.07;;;5.02;68.55
56689;BME280;42565;53.342;-1.534;2024-03-02T02:17:13;96465.27;;;4.90;67.40
56689;BME280;42565;53.342;-1.534;2024-03-02T02:19:40;96465.11;;;5.30;66.08
56689;BME280;42565;53.342;-1.534;2024-03-02T02:22:07;96462.35;;;4.79;66.59
56689;BME280;42565;53.342;-1.534;2024-03-02T02:24:34;96466.76;;;5.19;66.63
56689;BME280;42565;53.342;-1.534;2024-03-02T02:27:01;96459.00;;;4.76;67.22
56689;BME280;42565;53.342;-1.534;2024-03-02T02:29:29;96459.99;;;5.21;65.74
56689;BME280;42565;53.342;-1.534;2024-03-02T02:31:56;96458.68;;;5.10;66.34
56689;BME280;42565;53.342;-1.534;2024-03-02T02:34:23;96457.55;;;5.18;66.64
56689;BME280;42565;53.342;-1.534;2024-03-02T02:36:50;96456.21;;;4.60;66.84
56689;BME280;42565;53.342;-1.534;2024-03-02T02:39:20;96452.54;;;4.80;68.32
56689;BME280;42565;53.342;-1.534;2024-03-02T02:41:48;96455.10;;;5.11;67.32
56689;BME280;42565;53.342;-1.534;2024-03-02T02:44:16;96452.29;;;5.25;67.23
56689;BME280;42565;53.342;-1.534;2024-03-02T02:46:43;96455.03;;;5.54;67.79
56689;BME280;42565;53.342;-1.534;2024-03-02T02:49:11;96448.71;;;4.32;69.42
56689;BME280;42565;53.342;-1.534;2024-03-02T02:51:38;96450.03;;;5.06;67.91
56689;BME280;42565;53.342;-1.534;2024-03-02T02:54:05;96443.25;;;4.65;68.86
56689;BME280;42565;53.342;-1.534;2024-03-02T02:56:32;96442.19;;;5.15;69.28
56689;BME280;42565;53.342;-1.534;2024-03-02T02:59:00;96437.48;;;5.01;68.51
56689;BME280;42565;53.342;-1.534;2024-03-02T03:01:27;96435.52;;;4.92;68.45
56689;BME280;42565;53.342;-1.534;2024-03-02T03:03:55;96435.69;;;4.65;68.49
56689;BME280;42565;53.342;-1.534;2024-03-02T03:06:22;96436.38;;;3.98;69.70
56689;BME280;42565;53.342;-1.534;2024-03-02T03:08:49;96432.11;;;4.46;69.23
56689;BME280;42565;53.342;-1.534;2024-03-02T03:11:16;96428.18;;;4.84;69.46
56689;BME280;42565;53.342;-1.534;2024-03-02T03:13:43;96430.19;;;4.78;69.59
56689;BME280;42565;53.342;-1.534;2024-03-02T03:16:10;96431.11;;;4.58;69.46
56689;BME280;42565;53.342;-1.534;2024-03-02T03:18:37;96430.67;;;4.95;69.21
56689;BME280;42565;53.342;-1.534;2024-03-02T03:21:05;96424.85;;;4.48;69.58
56689;BME280;42565;53.342;-1.534;2024-03-02T03:23:32;96426.67;;;4.85;69.15
56689;BME280;42565;53.342;-1.534;2024-03-02T03:25:59;96421.06;;;4.49;69.93
56689;BME280;42565;53.342;-1.534;2024-03-02T03:28:25;96420.52;;;4.25;72.06
56689;BME280;42565;53.342;-1.534;2024-03-02T03:30:53;96417.15;;;4.32;70.82
56689;BME280;42565;53.342;-1.534;2024-03-02T03:33:20;96421.25;;;4.71;70.63
56689;BME280;42565;53.342;-1.534;2024-03-02T03:35:48;96418.54;;;4.44;69.99
56689;BME280;42565;53.342;-1.534;2024-03-02T03:38:15;96417.04;;;4.59;70.84
56689;BME280;42565;53.342;-1.534;2024-03-02T03:40:42;96417.19;;;4.90;70.78
56689;BME280;42565;53.342;-1.534;2024-03-02T03:43:09;96419.13;;;4.71;71.70
56689;BME280;42565;53.342;-1.534;2024-03-02T03:45:36;96424.15;;;4.80;70.59
56689;BME280;42565;53.342;-1.534;2024-03-02T03:48:03;96425.56;;;4.53;70.46
56689;BME280;42565;53.342;-1.534;2024-03-02T03:50:30;96424.24;;;4.21;71.14
56689;BME280;42565;53.342;-1.534;2024-03-02T03:52:57;96423.59;;;3.76;72.81
56689;BME280;42565;53.342;-1.534;2024-03-02T03:55:24;96425.26;;;4.43;72.25
56689;BME280;42565;53.342;-1.534;2024-03-02T03:57:51;96423.77;;;4.03;72.34
56689;BME280;42565;53.342;-1.534;2024-03-02T04:00:18;96419.30;;;4.66;72.21
56689;BME280;42565;53.342;-1.534;2024-03-02T04:02:46;96422.86;;;5.06;71.39
56689;BME280;42565;53.342;-1.534;2024-03-02T04:05:54;96423.45;;;4.46;70.87
56689;BME280;42565;53.342;-1.534;2024-03-02T04:08:21;96427.57;;;4.54;71.47
56689;BME280;42565;53.342;-1.534;2024-03-02T04:10:49;96428.55;;;3.91;71.86
56689;BME280;42565;53.342;-1.534;2024-03-02T04:13:16;96429.63;;;4.67;70.58
56689;BME280;42565;53.342;-1.534;2024-03-02T04:15:43;96426.02;;;5.14;70.97
56689;BME280;42565;53.342;-1.534;2024-03-02T04:18:10;96426.22;;;4.73;70.56
56689;BME280;42565;53.342;-1.534;2024-03-02T04:20:37;96426.54;;;5.03;71.22
56689;BME280;42565;53.342;-1.534;2024-03-02T04:23:04;96425.16;;;4.24;72.01
56689;BME280;42565;53.342;-1.534;2024-03-02T04:25:31;96427.67;;;4.28;72.54
56689;BME280;42565;53.342;-1.534;2024-03-02T04:27:58;96431.26;;;4.00;73.00
56689;BME280;42565;53.342;-1.534;2024-03-02T04:30:25;96424.80;;;4.54;73.19
56689;BME280;42565;53.342;-1.534;2024-03-02T04:32:52;96426.84;;;4.25;73.64
56689;BME280;42565;53.342;-1.534;2024-03-02T04:35:19;96425.14;;;4.49;73.10
56689;BME280;42565;53.342;-1.534;2024-03-02T04:37:47;96425.15;;;4.39;73.38
56689;BME280;42565;53.342;-1.534;2024-03-02T04:40:14;96424.01;;;4.86;71.99
56689;BME280;42565;53.342;-1.534;2024-03-02T04:42:41;96422.87;;;4.88;71.68
56689;BME280;42565;53.342;-1.534;2024-03-02T04:45:09;96422.42;;;4.49;71.78
56689;BME280;42565;53.342;-1.534;2024-03-02T04:47:35;96424.44;;;4.44;72.19
56689;BME280;42565;53.342;-1.534;2024-03-02T04:50:03;96427.35;;;4.56;71.46
56689;BME280;42565;53.342;-1.534;2024-03-02T04:52:30;96429.41;;;4.17;73.71
56689;BME280;42565;53.342;-1.534;2024-03-02T04:54:57;96429.42;;;4.44;72.59
56689;BME280;42565;53.342;-1.534;2024-03-02T04:57:24;96430.40;;;4.64;72.29
56689;BME280;42565;53.342;-1.534;2024-03-02T04:59:52;96430.81;;;4.34;72.42
56689;BME280;42565;53.342;-1.534;2024-03-02T05:02:19;96434.47;;;4.59;72.73
56689;BME280;42565;53.342;-1.534;2024-03-02T05:04:47;96431.61;;;4.90;72.43
56689;BME280;42565;53.342;-1.534;2024-03-02T05:07:14;96430.59;;;4.53;71.90
56689;BME280;42565;53.342;-1.534;2024-03-02T05:09:41;96427.22;;;4.91;71.64
56689;BME280;42565;53.342;-1.534;2024-03-02T05:12:10;96431.09;;;4.55;71.91
56689;BME280;42565;53.342;-1.534;2024-03-02T05:14:37;96429.98;;;4.70;71.99
56689;BME280;42565;53.342;-1.534;2024-03-02T05:17:04;96425.50;;;3.87;74.02
56689;BME280;42565;53.342;-1.534;2024-03-02T05:19:31;96429.34;;;4.20;72.45
56689;BME280;42565;53.342;-1.534;2024-03-02T05:21:58;96432.34;;;4.28;73.61
56689;BME280;42565;53.342;-1.534;2024-03-02T05:24:26;96433.01;;;4.61;73.08
56689;BME280;42565;53.342;-1.534;2024-03-02T05:26:53;96430.22;;;4.91;72.34
56689;BME280;42565;53.342;-1.534;2024-03-02T05:29:20;96434.67;;;4.48;73.45
56689;BME280;42565;53.342;-1.534;2024-03-02T05:31:48;96434.44;;;4.50;73.77
56689;BME280;42565;53.342;-1.534;2024-03-02T05:34:15;96436.15;;;4.80;72.66
56689;BME280;42565;53.342;-1.534;2024-03-02T05:36:41;96433.62;;;4.75;72.96
56689;BME280;42565;53.342;-1.534;2024-03-02T05:39:09;96435.28;;;4.67;72.63
56689;BME280;42565;53.342;-1.534;2024-03-02T05:41:36;96439.46;;;4.14;73.27
56689;BME280;42565;53.342;-1.534;2024-03-02T05:44:04;96439.14;;;3.36;77.54
56689;BME280;42565;53.342;-1.534;2024-03-02T05:46:31;96436.62;;;3.96;75.74
56689;BME280;42565;53.342;-1.534;2024-03-02T05:48:58;96435.46;;;4.11;75.29
56689;BME280;42565;53.342;-1.534;2024-03-02T05:51:25;96429.73;;;4.17;75.12
56689;BME280;42565;53.342;-1.534;2024-03-02T05:53:53;96427.60;;;3.28;76.30
56689;BME280;42565;53.342;-1.534;2024-03-02T05:56:20;96428.14;;;4.36;74.54
56689;BME280;42565;53.342;-1.534;2024-03-02T05:58:47;96427.45;;;4.10;74.74
56689;BME280;42565;53.342;-1.534;2024-03-02T06:01:14;96427.18;;;3.82;75.79
56689;BME280;42565;53.342;-1.534;2024-03-02T06:03:41;96427.64;;;4.10;75.07
56689;BME280;42565;53.342;-1.534;2024-03-02T06:06:08;96429.18;;;3.89;75.41
56689;BME280;42565;53.342;-1.534;2024-03-02T06:08:35;96427.94;;;4.43;74.38
56689;BME280;42565;53.342;-1.534;2024-03-02T06:11:03;96435.14;;;3.59;75.01
56689;BME280;42565;53.342;-1.534;2024-03-02T06:13:30;96440.22;;;4.27;74.43
56689;BME280;42565;53.342;-1.534;2024-03-02T06:15:57;96440.97;;;3.76;76.39
56689;BME280;42565;53.342;-1.534;2024-03-02T06:18:24;96441.89;;;3.78;76.35
56689;BME280;42565;53.342;-1.534;2024-03-02T06:20:51;96442.49;;;3.34;76.92
56689;BME280;42565;53.342;-1.534;2024-03-02T06:23:18;96443.78;;;4.12;75.50
56689;BME280;42565;53.342;-1.534;2024-03-02T06:25:46;96445.92;;;4.12;75.02
56689;BME280;42565;53.342;-1.534;2024-03-02T06:28:13;96447.07;;;2.52;81.26
56689;BME280;42565;53.342;-1.534;2024-03-02T06:30:41;96448.63;;;2.58;81.01
56689;BME280;42565;53.342;-1.534;2024-03-02T06:33:08;96448.82;;;2.48;82.65
56689;BME280;42565;53.342;-1.534;2024-03-02T06:35:35;96448.03;;;3.43;80.10
56689;BME280;42565;53.342;-1.534;2024-03-02T06:38:02;96447.30;;;3.56;78.22
56689;BME280;42565;53.342;-1.534;2024-03-02T06:40:29;96451.49;;;3.00;81.45
56689;BME280;42565;53.342;-1.534;2024-03-02T06:42:56;96453.35;;;1.79;85.47
56689;BME280;42565;53.342;-1.534;2024-03-02T06:45:23;96452.83;;;2.27;83.50
56689;BME280;42565;53.342;-1.534;2024-03-02T06:47:50;96454.73;;;2.46;82.39
56689;BME280;42565;53.342;-1.534;2024-03-02T06:50:17;96452.53;;;3.50;79.96
56689;BME280;42565;53.342;-1.534;2024-03-02T06:52:44;96452.95;;;3.18;79.71
56689;BME280;42565;53.342;-1.534;2024-03-02T06:55:11;96455.47;;;3.96;78.14
56689;BME280;42565;53.342;-1.534;2024-03-02T06:57:38;96457.59;;;3.79;77.43
56689;BME280;42565;53.342;-1.534;2024-03-02T07:00:06;96456.52;;;3.50;78.86
56689;BME280;42565;53.342;-1.534;2024-03-02T07:02:33;96453.88;;;3.04;79.82
56689;BME280;42565;53.342;-1.534;2024-03-02T07:05:00;96454.80;;;3.47;79.39
56689;BME280;42565;53.342;-1.534;2024-03-02T07:07:28;96457.73;;;3.15;79.86
56689;BME280;42565;53.342;-1.534;2024-03-02T07:09:55;96461.05;;;2.55;83.55
56689;BME280;42565;53.342;-1.534;2024-03-02T07:12:22;96460.64;;;3.62;80.71
56689;BME280;42565;53.342;-1.534;2024-03-02T07:14:49;96470.16;;;3.23;78.83
56689;BME280;42565;53.342;-1.534;2024-03-02T07:17:16;96467.36;;;3.25;79.68
56689;BME280;42565;53.342;-1.534;2024-03-02T07:19:43;96467.69;;;3.01;80.34
56689;BME280;42565;53.342;-1.534;2024-03-02T07:22:10;96471.47;;;2.50;83.34
56689;BME280;42565;53.342;-1.534;2024-03-02T07:24:40;96478.28;;;1.58;87.69
56689;BME280;42565;53.342;-1.534;2024-03-02T07:27:07;96469.45;;;2.88;84.16
56689;BME280;42565;53.342;-1.534;2024-03-02T07:29:34;96466.25;;;3.42;81.49
56689;BME280;42565;53.342;-1.534;2024-03-02T07:32:01;96466.70;;;3.58;80.03
56689;BME280;42565;53.342;-1.534;2024-03-02T07:34:28;96468.57;;;3.00;80.56
56689;BME280;42565;53.342;-1.534;2024-03-02T07:36:55;96464.37;;;2.94;81.27
56689;BME280;42565;53.342;-1.534;2024-03-02T07:39:22;96461.07;;;3.60;80.01
56689;BME280;42565;53.342;-1.534;2024-03-02T07:41:50;96458.61;;;3.66;79.21
56689;BME280;42565;53.342;-1.534;2024-03-02T07:44:17;96457.59;;;2.93;80.96
56689;BME280;42565;53.342;-1.534;2024-03-02T07:46:45;96455.56;;;2.52;82.65
56689;BME280;42565;53.342;-1.534;2024-03-02T07:49:12;96460.15;;;2.39;81.47
56689;BME280;42565;53.342;-1.534;2024-03-02T07:51:39;96464.56;;;2.94;81.63
56689;BME280;42565;53.342;-1.534;2024-03-02T07:54:06;96459.99;;;3.36;79.77
56689;BME280;42565;53.342;-1.534;2024-03-02T07:56:33;96462.38;;;3.72;78.34
56689;BME280;42565;53.342;-1.534;2024-03-02T07:59:01;96461.14;;;3.30;78.77
56689;BME280;42565;53.342;-1.534;2024-03-02T08:01:28;96463.10;;;3.22;79.85
56689;BME280;42565;53.342;-1.534;2024-03-02T08:03:56;96463.32;;;3.26;79.20
56689;BME280;42565;53.342;-1.534;2024-03-02T08:06:24;96461.65;;;3.48;78.59
56689;BME280;42565;53.342;-1.534;2024-03-02T08:08:51;96459.70;;;3.77;77.52
56689;BME280;42565;53.342;-1.534;2024-03-02T08:11:18;96468.96;;;3.73;77.41
56689;BME280;42565;53.342;-1.534;2024-03-02T08:13:46;96468.73;;;3.85;77.52
56689;BME280;42565;53.342;-1.534;2024-03-02T08:16:13;96474.72;;;3.88;77.01
56689;BME280;42565;53.342;-1.534;2024-03-02T08:18:40;96472.84;;;4.32;76.47
56689;BME280;42565;53.342;-1.534;2024-03-02T08:21:08;96470.76;;;4.45;75.63
56689;BME280;42565;53.342;-1.534;2024-03-02T08:23:35;96473.91;;;3.92;76.36
56689;BME280;42565;53.342;-1.534;2024-03-02T08:26:04;96473.11;;;3.94;76.56
56689;BME280;42565;53.342;-1.534;2024-03-02T08:28:31;96476.06;;;3.54;78.27
56689;BME280;42565;53.342;-1.534;2024-03-02T08:30:58;96479.41;;;3.92;77.53
56689;BME280;42565;53.342;-1.534;2024-03-02T08:33:25;96482.54;;;4.19;76.93
56689;BME280;42565;53.342;-1.534;2024-03-02T08:35:52;96476.71;;;3.39;77.60
56689;BME280;42565;53.342;-1.534;2024-03-02T08:38:19;96477.79;;;4.06;77.57
56689;BME280;42565;53.342;-1.534;2024-03-02T08:40:47;96473.39;;;3.98;77.31
56689;BME280;42565;53.342;-1.534;2024-03-02T08:43:14;96475.13;;;4.42;76.14
56689;BME280;42565;53.342;-1.534;2024-03-02T08:45:42;96474.87;;;4.32;76.00
56689;BME280;42565;53.342;-1.534;2024-03-02T08:48:09;96477.27;;;4.32;76.64
56689;BME280;42565;53.342;-1.534;2024-03-02T08:50:36;96480.36;;;4.28;76.32
56689;BME280;42565;53.342;-1.534;2024-03-02T08:53:04;96478.86;;;4.29;76.99
56689;BME280;42565;53.342;-1.534;2024-03-02T08:55:31;96476.95;;;4.28;77.72
56689;BME280;42565;53.342;-1.534;2024-03-02T08:58:00;96479.74;;;4.56;76.26
56689;BME280;42565;53.342;-1.534;2024-03-02T09:00:27;96479.01;;;3.81;77.89
56689;BME280;42565;53.342;-1.534;2024-03-02T09:02:54;96481.20;;;3.92;77.05
56689;BME280;42565;53.342;-1.534;2024-03-02T09:05:22;96480.33;;;4.73;76.31
56689;BME280;42565;53.342;-1.534;2024-03-02T09:07:49;96482.50;;;4.02;76.92
56689;BME280;42565;53.342;-1.534;2024-03-02T09:10:16;96478.04;;;4.10;78.54
56689;BME280;42565;53.342;-1.534;2024-03-02T09:12:43;96473.16;;;4.38;77.99
56689;BME280;42565;53.342;-1.534;2024-03-02T09:15:10;96472.44;;;4.49;76.95
56689;BME280;42565;53.342;-1.534;2024-03-02T09:17:37;96460.95;;;4.43;78.03
56689;BME280;42565;53.342;-1.534;2024-03-02T09:20:04;96460.79;;;4.33;77.27
56689;BME280;42565;53.342;-1.534;2024-03-02T09:22:31;96461.95;;;3.78;79.37
56689;BME280;42565;53.342;-1.534;2024-03-02T09:24:58;96463.35;;;3.85;79.73
56689;BME280;42565;53.342;-1.534;2024-03-02T09:27:26;96462.57;;;4.12;79.35
56689;BME280;42565;53.342;-1.534;2024-03-02T09:29:53;96460.91;;;4.17;78.49
56689;BME280;42565;53.342;-1.534;2024-03-02T09:32:20;96452.92;;;4.73;77.59
56689;BME280;42565;53.342;-1.534;2024-03-02T09:34:48;96453.66;;;4.20;77.56
56689;BME280;42565;53.342;-1.534;2024-03-02T09:38:18;96450.23;;;4.60;78.56
56689;BME280;42565;53.342;-1.534;2024-03-02T09:40:45;96445.73;;;4.34;77.72
56689;BME280;42565;53.342;-1.534;2024-03-02T09:43:13;96452.94;;;4.24;79.39
56689;BME280;42565;53.342;-1.534;2024-03-02T09:45:41;96452.74;;;4.41;79.75
56689;BME280;42565;53.342;-1.534;2024-03-02T09:48:08;96444.90;;;4.53;77.99
56689;BME280;42565;53.342;-1.534;2024-03-02T09:50:34;96444.33;;;4.63;77.77
56689;BME280;42565;53.342;-1.534;2024-03-02T09:53:01;96438.13;;;4.18;78.25
56689;BME280;42565;53.342;-1.534;2024-03-02T09:55:28;96441.89;;;4.39;79.97
56689;BME280;42565;53.342;-1.534;2024-03-02T09:57:55;96441.13;;;3.64;81.83
56689;BME280;42565;53.342;-1.534;2024-03-02T10:00:23;96443.11;;;3.88;81.71
56689;BME280;42565;53.342;-1.534;2024-03-02T10:02:50;96440.83;;;4.01;80.87
56689;BME280;42565;53.342;-1.534;2024-03-02T10:05:25;96440.35;;;4.50;79.38
56689;BME280;42565;53.342;-1.534;2024-03-02T10:07:59;96437.70;;;4.00;80.39
56689;BME280;42565;53.342;-1.534;2024-03-02T10:10:34;96438.59;;;4.65;78.90
56689;BME280;42565;53.342;-1.534;2024-03-02T10:13:04;96435.89;;;4.98;79.52
56689;BME280;42565;53.342;-1.534;2024-03-02T10:15:31;96436.88;;;4.86;79.24
56689;BME280;42565;53.342;-1.534;2024-03-02T10:17:58;96438.32;;;3.76;80.98
56689;BME280;42565;53.342;-1.534;2024-03-02T10:20:27;96439.79;;;3.86;81.82
56689;BME280;42565;53.342;-1.534;2024-03-02T10:22:54;96435.13;;;4.24;83.66
56689;BME280;42565;53.342;-1.534;2024-03-02T10:25:30;96431.54;;;4.32;82.56
56689;BME280;42565;53.342;-1.534;2024-03-02T10:27:58;96423.03;;;4.23;80.99
56689;BME280;42565;53.342;-1.534;2024-03-02T10:30:25;96427.76;;;2.71;87.08
56689;BME280;42565;53.342;-1.534;2024-03-02T10:32:53;96428.06;;;4.07;85.06
56689;BME280;42565;53.342;-1.534;2024-03-02T10:35:21;96427.28;;;4.07;83.97
56689;BME280;42565;53.342;-1.534;2024-03-02T10:37:49;96429.79;;;3.75;84.99
56689;BME280;42565;53.342;-1.534;2024-03-02T10:40:16;96431.18;;;3.59;86.44
56689;BME280;42565;53.342;-1.534;2024-03-02T10:42:45;96435.75;;;3.75;87.26
56689;BME280;42565;53.342;-1.534;2024-03-02T10:45:12;96432.14;;;3.42;87.45
56689;BME280;42565;53.342;-1.534;2024-03-02T10:47:42;96429.57;;;3.34;89.63
56689;BME280;42565;53.342;-1.534;2024-03-02T10:50:10;96434.34;;;2.81;92.13
56689;BME280;42565;53.342;-1.534;2024-03-02T10:52:38;96433.14;;;1.36;99.89
56689;BME280;42565;53.342;-1.534;2024-03-02T10:55:06;96432.41;;;2.24;98.20
56689;BME280;42565;53.342;-1.534;2024-03-02T10:57:42;96432.38;;;1.80;98.18
56689;BME280;42565;53.342;-1.534;2024-03-02T11:00:13;96428.67;;;2.21;96.05
56689;BME280;42565;53.342;-1.534;2024-03-02T11:02:45;96426.23;;;2.39;95.98
56689;BME280;42565;53.342;-1.534;2024-03-02T11:05:25;96426.25;;;2.93;94.57
56689;BME280;42565;53.342;-1.534;2024-03-02T11:07:54;96425.31;;;2.63;94.82
56689;BME280;42565;53.342;-1.534;2024-03-02T11:10:24;96429.48;;;3.19;94.43
56689;BME280;42565;53.342;-1.534;2024-03-02T11:12:56;96427.93;;;3.48;91.99
56689;BME280;42565;53.342;-1.534;2024-03-02T11:15:27;96426.74;;;3.88;90.12
56689;BME280;42565;53.342;-1.534;2024-03-02T11:17:55;96424.62;;;4.00;90.64
56689;BME280;42565;53.342;-1.534;2024-03-02T11:20:23;96423.92;;;3.54;91.99
56689;BME280;42565;53.342;-1.534;2024-03-02T11:22:51;96425.82;;;3.12;93.52
56689;BME280;42565;53.342;-1.534;2024-03-02T11:25:27;96428.73;;;3.05;98.73
56689;BME280;42565;53.342;-1.534;2024-03-02T11:28:03;96424.38;;;3.01;97.50
56689;BME280;42565;53.342;-1.534;2024-03-02T11:31:03;96420.10;;;3.07;98.87
56689;BME280;42565;53.342;-1.534;2024-03-02T11:33:30;96416.81;;;2.67;100.00
56689;BME280;42565;53.342;-1.534;2024-03-02T11:36:32;96413.06;;;3.03;99.30
56689;BME280;42565;53.342;-1.534;2024-03-02T11:38:59;96413.33;;;3.26;96.55
56689;BME280;42565;53.342;-1.534;2024-03-02T11:41:26;96415.15;;;3.13;99.58
56689;BME280;42565;53.342;-1.534;2024-03-02T11:43:53;96411.77;;;3.66;97.06
56689;BME280;42565;53.342;-1.534;2024-03-02T11:46:22;96413.94;;;3.99;95.41
56689;BME280;42565;53.342;-1.534;2024-03-02T11:48:49;96409.69;;;3.31;95.78
56689;BME280;42565;53.342;-1.534;2024-03-02T11:51:16;96408.30;;;3.62;97.45
56689;BME280;42565;53.342;-1.534;2024-03-02T11:53:45;96409.68;;;3.06;100.00
56689;BME280;42565;53.342;-1.534;2024-03-02T11:56:14;96406.68;;;2.91;98.44
56689;BME280;42565;53.342;-1.534;2024-03-02T11:58:43;96405.53;;;3.86;97.65
56689;BME280;42565;53.342;-1.534;2024-03-02T12:01:11;96401.95;;;4.37;92.72
56689;BME280;42565;53.342;-1.534;2024-03-02T12:03:39;96405.25;;;3.16;97.65
56689;BME280;42565;53.342;-1.534;2024-03-02T12:06:07;96402.85;;;3.02;100.00
56689;BME280;42565;53.342;-1.534;2024-03-02T12:08:34;96395.01;;;3.01;100.00
56689;BME280;42565;53.342;-1.534;2024-03-02T12:11:03;96397.69;;;3.23;100.00
56689;BME280;42565;53.342;-1.534;2024-03-02T12:13:30;96393.34;;;3.47;100.00
56689;BME280;42565;53.342;-1.534;2024-03-02T12:16:00;96393.55;;;3.10;99.75
56689;BME280;42565;53.342;-1.534;2024-03-02T12:18:27;96394.70;;;3.80;98.22
56689;BME280;42565;53.342;-1.534;2024-03-02T12:20:55;96384.16;;;2.23;100.00
56689;BME280;42565;53.342;-1.534;2024-03-02T12:23:22;96385.50;;;3.38;100.00
56689;BME280;42565;53.342;-1.534;2024-03-02T12:25:50;96383.63;;;3.11;100.00
56689;BME280;42565;53.342;-1.534;2024-03-02T12:28:17;96380.85;;;3.46;100.00
56689;BME280;42565;53.342;-1.534;2024-03-02T12:30:46;96381.54;;;3.63;98.84
56689;BME280;42565;53.342;-1.534;2024-03-02T12:33:14;96375.10;;;3.35;99.84
56689;BME280;42565;53.342;-1.534;2024-03-02T12:35:42;96377.95;;;3.57;98.66
56689;BME280;42565;53.342;-1.534;2024-03-02T12:38:09;96376.46;;;3.26;99.79
56689;BME280;42565;53.342;-1.534;2024-03-02T12:40:38;96373.85;;;2.75;100.00
56689;BME280;42565;53.342;-1.534;2024-03-02T12:43:06;96375.85;;;3.24;100.00
56689;BME280;42565;53.342;-1.534;2024-03-02T12:45:34;96375.55;;;3.13;100.00
56689;BME280;42565;53.342;-1.534;2024-03-02T12:48:02;96366.48;;;3.16;99.13
56689;BME280;42565;53.342;-1.534;2024-03-02T12:50:29;96376.00;;;2.46;100.00
56689;BME280;42565;53.342;-1.534;2024-03-02T12:52:57;96376.62;;;3.17;99.27
56689;BME280;42565;53.342;-1.534;2024-03-02T12:55:25;96375.43;;;3.71;97.49
56689;BME280;42565;53.342;-1.534;2024-03-02T12:57:53;96376.27;;;3.02;95.28
56689;BME280;42565;53.342;-1.534;2024-03-02T13:00:21;96382.17;;;3.54;94.09
56689;BME280;42565;53.342;-1.534;2024-03-02T13:02:48;96381.58;;;3.49;94.98
56689;BME280;42565;53.342;-1.534;2024-03-02T13:05:17;96376.99;;;3.76;92.59